Beaucoup, Illinois
Current Conditions -  °F | °C
As of 12:15 PM on Thursday 27 Nov 2014 (Local Time) from KSAR Reporting Station
Overcast Overcast  
Wind Chill: 23°   Ceiling: 3500
Heat Index: 31°   Visibility: 10mi
Dew Point: 25°   Wind: 9mph
Humidity: 76%   Direction: 310°NW
Pressure: 30.47"   Gusts: NA
Location:  38.318°N, 89.3879°W
Report Text: KSAR 271815Z AUTO 31008KT 10SM SCT024 OVC035 00/M04 A3047 RMK AO2 T10031040
Loading
Personal Weather Stations






























Interactive Weather Map New forecast layout! Learn more

10-Day Weather Forecast

Advertisements
Track Severe Weather on mobile